Terminal Aerodrome Forecast
Issued by NWS Wakefield, VA

Home | Current Version | Previous Version | Text Only | Print | Product List | Glossary On
Versions: 1 2 3 4 5 6 7 8 9 10 11 12 13 14 15 16 17 18 19 20 21 22 23 24 25 26 27
000
FTUS41 KAKQ 242300 CCA
TAFRIC
TAF COR
KRIC 242358Z 2500/2524 02005KT P6SM SCT025 OVC050
      TEMPO 2500/2501 4SM -RA BR
     FM250200 35003KT 3SM BR OVC050
     FM250500 01003KT 1SM BR BKN050
     FM251400 03008KT P6SM SCT050 BKN250
     FM252000 08005KT P6SM BKN250=

USA.gov is the U.S. government's official web portal to all federal, state and local government web resources and services.